createdAt,value
2022-10-02T00:00:16.593Z,101028.28
2022-10-02T00:01:32.942Z,101031.81
2022-10-02T00:02:41.326Z,101033.50
2022-10-02T00:03:44.562Z,101029.03
2022-10-02T00:04:55.181Z,101033.34
2022-10-02T00:06:02.995Z,101029.88
2022-10-02T00:07:07.974Z,101029.88
2022-10-02T00:08:17.443Z,101030.69
2022-10-02T00:09:39.901Z,101037.72
2022-10-02T00:10:45.691Z,101029.88
2022-10-02T00:11:51.201Z,101036.03
2022-10-02T00:12:57.151Z,101041.34
2022-10-02T00:14:04.532Z,101038.69
2022-10-02T00:15:15.947Z,101057.34
2022-10-02T00:16:26.947Z,101041.34
2022-10-02T00:17:33.554Z,101046.69
2022-10-02T00:18:39.175Z,101039.41
2022-10-02T00:19:41.645Z,101046.44
2022-10-02T00:20:53.940Z,101042.66
2022-10-02T00:22:07.763Z,101049.66
2022-10-02T00:23:16.117Z,101038.88
2022-10-02T00:24:21.983Z,101036.09
2022-10-02T00:25:28.976Z,101048.31
2022-10-02T00:26:38.030Z,101050.69
2022-10-02T00:27:46.826Z,101047.06
2022-10-02T00:29:01.371Z,101045.09
2022-10-02T00:30:05.839Z,101037.94
2022-10-02T00:31:23.531Z,101038.78
2022-10-02T00:32:31.404Z,101039.50
2022-10-02T00:33:44.504Z,101049.19
2022-10-02T00:35:17.058Z,101048.34
2022-10-02T00:36:33.046Z,101054.50
2022-10-02T00:37:43.927Z,101053.66
2022-10-02T00:38:54.765Z,101056.34
2022-10-02T00:40:04.369Z,101053.66
2022-10-02T00:41:49.169Z,101052.81
2022-10-02T00:43:04.320Z,101057.19
2022-10-02T00:44:24.775Z,101061.66
2022-10-02T00:45:41.652Z,101056.34
2022-10-02T00:46:54.706Z,101051.13
2022-10-02T00:48:05.993Z,101056.44
2022-10-02T00:49:34.772Z,101060.13
2022-10-02T00:50:44.311Z,101062.78
2022-10-02T00:52:04.165Z,101058.28
2022-10-02T00:53:14.636Z,101060.13
2022-10-02T00:54:45.988Z,101065.28
2022-10-02T00:55:59.002Z,101044.81
2022-10-02T00:57:09.963Z,101059.84
2022-10-02T00:58:36.589Z,101062.50
2022-10-02T00:59:52.123Z,101063.38
2022-10-02T01:01:02.587Z,101057.19
2022-10-02T01:02:12.302Z,101057.19
2022-10-02T01:03:18.211Z,101062.38
2022-10-02T01:04:29.700Z,101062.50
2022-10-02T01:05:32.751Z,101060.53
2022-10-02T01:06:35.640Z,101069.50
2022-10-02T01:07:41.997Z,101068.41
2022-10-02T01:08:44.504Z,101069.25
2022-10-02T01:09:46.248Z,101060.28
2022-10-02T01:10:48.991Z,101061.13
2022-10-02T01:11:51.205Z,101064.63
2022-10-02T01:12:55.093Z,101067.03
2022-10-02T01:13:57.035Z,101066.88
2022-10-02T01:14:59.538Z,101072.94
2022-10-02T01:16:01.629Z,101066.50
2022-10-02T01:17:06.581Z,101062.00
2022-10-02T01:18:13.185Z,101067.06
2022-10-02T01:19:26.908Z,101064.53
2022-10-02T01:20:33.296Z,101068.75
2022-10-02T01:21:43.609Z,101066.09
2022-10-02T01:22:52.628Z,101070.44
2022-10-02T01:24:01.089Z,101068.75
2022-10-02T01:25:06.534Z,101072.28
2022-10-02T01:26:09.360Z,101062.59
2022-10-02T01:27:10.948Z,101074.94
2022-10-02T01:28:13.896Z,101074.94
2022-10-02T01:29:15.545Z,101072.28
2022-10-02T01:30:20.592Z,101070.44
2022-10-02T01:31:24.789Z,101071.28
2022-10-02T01:32:29.156Z,101071.28
2022-10-02T01:33:32.829Z,101078.31
2022-10-02T01:34:34.997Z,101080.13
2022-10-02T01:35:40.125Z,101074.78
2022-10-02T01:36:41.897Z,101075.63
2022-10-02T01:37:45.907Z,101080.97
2022-10-02T01:38:49.156Z,101072.97
2022-10-02T01:39:52.311Z,101076.38
2022-10-02T01:40:55.347Z,101071.03
2022-10-02T01:41:58.018Z,101071.03
2022-10-02T01:43:02.316Z,101073.69
2022-10-02T01:44:04.865Z,101068.38
2022-10-02T01:45:08.924Z,101071.03
2022-10-02T01:46:32.250Z,101072.72
2022-10-02T01:47:42.908Z,101079.88
2022-10-02T01:48:48.159Z,101076.38
2022-10-02T01:50:07.438Z,101077.34
2022-10-02T01:51:48.738Z,101080.84
2022-10-02T01:53:00.997Z,101072.84
2022-10-02T01:54:18.546Z,101078.06
2022-10-02T01:55:36.719Z,101077.09
2022-10-02T01:56:48.429Z,101087.63
2022-10-02T01:58:01.341Z,101079.50
2022-10-02T01:59:11.655Z,101080.19
2022-10-02T02:00:18.051Z,101077.25
2022-10-02T02:01:30.988Z,101076.28
2022-10-02T02:02:43.859Z,101078.94
2022-10-02T02:03:53.148Z,101080.66
2022-10-02T02:05:00.934Z,101088.66
2022-10-02T02:06:09.108Z,101078.78
2022-10-02T02:07:20.695Z,101084.00
2022-10-02T02:08:28.808Z,101080.50
2022-10-02T02:09:38.897Z,101078.66
2022-10-02T02:10:47.044Z,101084.00
2022-10-02T02:12:00.155Z,101088.38
2022-10-02T02:13:08.314Z,101086.41
2022-10-02T02:14:16.471Z,101078.41
2022-10-02T02:15:25.771Z,101075.88
2022-10-02T02:16:33.312Z,101075.72
2022-10-02T02:17:46.312Z,101079.09
2022-10-02T02:18:54.916Z,101073.75
2022-10-02T02:20:01.842Z,101075.47
2022-10-02T02:21:09.053Z,101073.63
2022-10-02T02:22:18.445Z,101070.13
2022-10-02T02:23:26.172Z,101074.59
2022-10-02T02:24:36.070Z,101078.13
2022-10-02T02:25:41.913Z,101077.16
2022-10-02T02:26:45.198Z,101062.13
2022-10-02T02:27:53.418Z,101071.81
2022-10-02T02:28:57.492Z,101074.50
2022-10-02T02:30:05.500Z,101069.16
2022-10-02T02:31:13.216Z,101067.34
2022-10-02T02:32:20.411Z,101070.84
2022-10-02T02:33:26.675Z,101069.00
2022-10-02T02:34:32.691Z,101068.03
2022-10-02T02:35:40.412Z,101074.22
2022-10-02T02:36:45.953Z,101076.72
2022-10-02T02:37:51.821Z,101075.91
2022-10-02T02:38:58.486Z,101075.91
2022-10-02T02:40:06.026Z,101075.75
2022-10-02T02:41:12.467Z,101078.56
2022-10-02T02:42:18.499Z,101075.91
2022-10-02T02:43:27.843Z,101068.59
2022-10-02T02:44:36.010Z,101079.28
2022-10-02T02:45:42.493Z,101078.41
2022-10-02T02:47:06.593Z,101080.13
2022-10-02T02:48:14.460Z,101077.28
2022-10-02T02:49:16.308Z,101086.03
2022-10-02T02:50:23.298Z,101083.34
2022-10-02T02:51:30.998Z,101078.72
2022-10-02T02:52:39.457Z,101082.06
2022-10-02T02:53:47.021Z,101078.44
2022-10-02T02:54:54.647Z,101083.78
2022-10-02T02:56:00.759Z,101094.19
2022-10-02T02:57:04.980Z,101091.50
2022-10-02T02:58:15.951Z,101085.19
2022-10-02T02:59:20.861Z,101092.22
2022-10-02T03:00:25.533Z,101087.72
2022-10-02T03:01:27.444Z,101090.25
2022-10-02T03:02:30.159Z,101082.94
2022-10-02T03:03:31.762Z,101089.97
2022-10-02T03:04:34.836Z,101086.34
2022-10-02T03:05:40.461Z,101092.53
2022-10-02T03:06:45.193Z,101088.00
2022-10-02T03:07:52.568Z,101095.03
2022-10-02T03:08:55.568Z,101088.72
2022-10-02T03:10:06.052Z,101093.91
2022-10-02T03:11:21.440Z,101096.47
2022-10-02T03:12:34.083Z,101082.97
2022-10-02T03:13:57.221Z,101085.50
2022-10-02T03:15:15.016Z,101080.16
2022-10-02T03:16:28.500Z,101080.03
2022-10-02T03:17:47.687Z,101077.38
2022-10-02T03:19:02.948Z,101073.84
2022-10-02T03:20:11.865Z,101073.84
2022-10-02T03:21:19.709Z,101076.53
2022-10-02T03:22:35.472Z,101076.53
2022-10-02T03:23:49.987Z,101072.84
2022-10-02T03:25:00.360Z,101072.03
2022-10-02T03:26:09.323Z,101075.53
2022-10-02T03:27:14.259Z,101083.53
2022-10-02T03:28:43.629Z,101077.22
2022-10-02T03:29:50.977Z,101085.22
2022-10-02T03:30:55.634Z,101082.56
2022-10-02T03:32:00.645Z,101093.09
2022-10-02T03:33:03.918Z,101093.09
2022-10-02T03:34:06.831Z,101097.59
2022-10-02T03:35:11.728Z,101100.25
2022-10-02T03:36:17.769Z,101094.94
2022-10-02T03:37:21.437Z,101102.09
2022-10-02T03:38:25.708Z,101094.19
2022-10-02T03:39:27.524Z,101106.84
2022-10-02T03:40:30.072Z,101098.16
2022-10-02T03:41:31.572Z,101098.44
2022-10-02T03:42:35.882Z,101095.03
2022-10-02T03:43:38.590Z,101091.94
2022-10-02T03:44:41.192Z,101097.69
2022-10-02T03:45:51.737Z,101088.53
2022-10-02T03:46:56.037Z,101092.19
2022-10-02T03:47:57.620Z,101094.41
2022-10-02T03:49:00.233Z,101100.28
2022-10-02T03:50:01.740Z,101096.34
2022-10-02T03:51:04.678Z,101092.09
2022-10-02T03:52:06.288Z,101091.41
2022-10-02T03:53:14.034Z,101092.38
2022-10-02T03:54:17.688Z,101091.53
2022-10-02T03:55:32.366Z,101088.72
2022-10-02T03:56:40.562Z,101089.69
2022-10-02T03:57:45.117Z,101082.56
2022-10-02T03:58:51.586Z,101086.06
2022-10-02T04:00:00.030Z,101078.06
2022-10-02T04:01:05.690Z,101078.91
2022-10-02T04:02:20.160Z,101081.44
2022-10-02T04:03:25.165Z,101075.13
2022-10-02T04:04:32.519Z,101085.69
2022-10-02T04:05:40.222Z,101081.88
2022-10-02T04:06:46.793Z,101082.59
2022-10-02T04:07:53.036Z,101080.75
2022-10-02T04:09:00.114Z,101082.31
2022-10-02T04:10:17.107Z,101082.03
2022-10-02T04:11:26.193Z,101091.72
2022-10-02T04:12:33.000Z,101084.44
2022-10-02T04:13:40.921Z,101084.31
2022-10-02T04:14:49.310Z,101081.53
2022-10-02T04:16:08.791Z,101084.19
2022-10-02T04:17:15.758Z,101091.19
2022-10-02T04:18:23.141Z,101093.84
2022-10-02T04:19:29.341Z,101099.19
2022-10-02T04:20:37.428Z,101098.22
2022-10-02T04:21:44.086Z,101100.88
2022-10-02T04:22:52.485Z,101097.25
2022-10-02T04:23:59.506Z,101107.91
2022-10-02T04:25:09.476Z,101099.06
2022-10-02T04:26:16.935Z,101107.91
2022-10-02T04:27:26.451Z,101106.06
2022-10-02T04:28:35.223Z,101106.91
2022-10-02T04:29:42.581Z,101083.19
2022-10-02T04:30:44.130Z,101088.78
2022-10-02T04:31:51.888Z,101085.44
2022-10-02T04:32:56.899Z,101084.69
2022-10-02T04:34:02.708Z,101085.97
2022-10-02T04:35:12.378Z,101090.72
2022-10-02T04:36:31.554Z,101085.09
2022-10-02T04:37:52.560Z,101095.44
2022-10-02T04:39:07.553Z,101100.19
2022-10-02T04:40:36.690Z,101093.41
2022-10-02T04:41:57.731Z,101096.94
2022-10-02T04:43:15.088Z,101105.19
2022-10-02T04:44:32.218Z,101099.03
2022-10-02T04:45:52.371Z,101092.00
2022-10-02T04:47:11.954Z,101101.53
2022-10-02T04:48:40.256Z,101112.19
2022-10-02T04:50:02.273Z,101097.06
2022-10-02T04:51:15.023Z,101110.53
2022-10-02T04:52:33.558Z,101116.72
2022-10-02T04:53:50.434Z,101115.88
2022-10-02T04:55:11.924Z,101112.19
2022-10-02T04:56:34.836Z,101113.91
2022-10-02T04:58:01.378Z,101112.09
2022-10-02T04:59:17.902Z,101112.78
2022-10-02T05:00:21.645Z,101110.84
2022-10-02T05:01:32.589Z,101104.50
2022-10-02T05:03:02.434Z,101107.91
2022-10-02T05:04:25.481Z,101104.13
2022-10-02T05:05:45.489Z,101109.34
2022-10-02T05:07:04.316Z,101111.03
2022-10-02T05:08:31.568Z,101109.09
2022-10-02T05:09:42.444Z,101108.94
2022-10-02T05:10:57.864Z,101117.78
2022-10-02T05:12:30.208Z,101123.81
2022-10-02T05:13:55.478Z,101117.53
2022-10-02T05:15:13.126Z,101115.81
2022-10-02T05:16:33.517Z,101120.19
2022-10-02T05:17:47.272Z,101112.91
2022-10-02T05:19:02.495Z,101114.59
2022-10-02T05:20:22.959Z,101113.72
2022-10-02T05:21:45.080Z,101112.91
2022-10-02T05:23:03.378Z,101123.59
2022-10-02T05:24:27.786Z,101119.06
2022-10-02T05:26:14.201Z,101115.59
2022-10-02T05:27:36.884Z,101114.59
2022-10-02T05:28:53.415Z,101105.63
2022-10-02T05:30:06.527Z,101104.66
2022-10-02T05:31:21.399Z,101119.78
2022-10-02T05:32:45.123Z,101121.63
2022-10-02T05:34:02.955Z,101111.81
2022-10-02T05:35:21.714Z,101111.53
2022-10-02T05:37:06.530Z,101116.00
2022-10-02T05:38:21.357Z,101117.72
2022-10-02T05:39:28.998Z,101118.69
2022-10-02T05:40:38.856Z,101120.50
2022-10-02T05:41:51.429Z,101125.97
2022-10-02T05:43:02.730Z,101122.47
2022-10-02T05:44:12.628Z,101124.28
2022-10-02T05:45:26.050Z,101119.91
2022-10-02T05:46:34.184Z,101116.56
2022-10-02T05:47:42.151Z,101121.88
2022-10-02T05:48:48.866Z,101120.19
2022-10-02T05:49:54.801Z,101118.50
2022-10-02T05:51:03.630Z,101114.00
2022-10-02T05:52:11.113Z,101118.50
2022-10-02T05:53:22.975Z,101118.50
2022-10-02T05:54:42.250Z,101122.16
2022-10-02T05:55:49.397Z,101124.94
2022-10-02T05:56:58.754Z,101130.28
2022-10-02T05:58:06.335Z,101126.75
2022-10-02T05:59:14.800Z,101132.25
2022-10-02T06:00:28.331Z,101133.09
2022-10-02T06:01:35.655Z,101133.09
2022-10-02T06:02:41.974Z,101132.25
2022-10-02T06:03:49.238Z,101132.38
2022-10-02T06:05:00.086Z,101136.72
2022-10-02T06:06:16.830Z,101136.72
2022-10-02T06:07:20.763Z,101141.09
2022-10-02T06:08:31.579Z,101142.06
2022-10-02T06:09:39.838Z,101149.09
2022-10-02T06:10:47.586Z,101150.75
2022-10-02T06:11:56.100Z,101159.50
2022-10-02T06:13:04.876Z,101159.50
2022-10-02T06:14:20.217Z,101162.84
2022-10-02T06:15:28.258Z,101164.56
2022-10-02T06:16:37.158Z,101162.59
2022-10-02T06:17:44.650Z,101171.31
2022-10-02T06:18:52.033Z,101169.34
2022-10-02T06:20:03.847Z,101162.06
2022-10-02T06:21:11.651Z,101169.94
2022-10-02T06:22:15.906Z,101168.13
2022-10-02T06:23:23.271Z,101161.78
2022-10-02T06:24:37.358Z,101163.47
2022-10-02T06:25:44.752Z,101172.22
2022-10-02T06:26:53.422Z,101175.56
2022-10-02T06:28:01.732Z,101165.75
2022-10-02T06:29:08.100Z,101174.44
2022-10-02T06:30:13.957Z,101169.97
2022-10-02T06:31:23.048Z,101172.63
2022-10-02T06:32:34.928Z,101174.44
2022-10-02T06:33:36.935Z,101175.31
2022-10-02T06:34:39.435Z,101178.66
2022-10-02T06:35:59.419Z,101174.19
2022-10-02T06:37:36.331Z,101184.84
2022-10-02T06:38:57.873Z,101184.00
2022-10-02T06:40:20.639Z,101179.66
2022-10-02T06:41:30.915Z,101176.16
2022-10-02T06:42:44.573Z,101175.31
2022-10-02T06:44:13.735Z,101181.34
2022-10-02T06:45:29.155Z,101173.34
2022-10-02T06:46:39.346Z,101181.06
2022-10-02T06:47:59.043Z,101186.28
2022-10-02T06:49:09.532Z,101182.50
2022-10-02T06:50:35.089Z,101181.53
2022-10-02T06:51:47.075Z,101178.59
2022-10-02T06:52:58.972Z,101186.31
2022-10-02T06:54:17.006Z,101179.16
2022-10-02T06:55:36.955Z,101183.66
2022-10-02T06:56:50.482Z,101187.16
2022-10-02T06:58:09.740Z,101187.00
2022-10-02T06:59:30.189Z,101189.69
2022-10-02T07:00:36.701Z,101184.34
2022-10-02T07:01:57.196Z,101196.72
2022-10-02T07:03:35.979Z,101190.53
2022-10-02T07:04:59.054Z,101191.66
2022-10-02T07:06:27.054Z,101207.66
2022-10-02T07:07:44.177Z,101193.34
2022-10-02T07:09:14.813Z,101201.22
2022-10-02T07:10:35.095Z,101196.44
2022-10-02T07:11:46.643Z,101201.50
2022-10-02T07:13:16.660Z,101205.72
2022-10-02T07:14:30.663Z,101208.28
2022-10-02T07:15:53.358Z,101198.44
2022-10-02T07:17:22.070Z,101193.97
2022-10-02T07:18:34.557Z,101200.97
2022-10-02T07:19:53.649Z,101199.16
2022-10-02T07:21:07.974Z,101205.34
2022-10-02T07:22:43.803Z,101211.63
2022-10-02T07:23:56.752Z,101201.81
2022-10-02T07:25:20.520Z,101211.63
2022-10-02T07:26:42.504Z,101208.28
2022-10-02T07:27:57.045Z,101208.28
2022-10-02T07:29:09.888Z,101213.63
2022-10-02T07:30:14.879Z,101211.78
2022-10-02T07:31:26.092Z,101208.97
2022-10-02T07:32:48.519Z,101207.03
2022-10-02T07:34:06.554Z,101209.53
2022-10-02T07:35:32.797Z,101213.78
2022-10-02T07:36:47.619Z,101208.47
2022-10-02T07:38:02.397Z,101213.63
2022-10-02T07:39:17.150Z,101209.16
2022-10-02T07:40:35.641Z,101217.00
2022-10-02T07:41:52.108Z,101217.72
2022-10-02T07:43:06.990Z,101219.28
2022-10-02T07:44:35.857Z,101224.63
2022-10-02T07:45:41.853Z,101225.31
2022-10-02T07:46:56.067Z,101227.97
2022-10-02T07:48:37.638Z,101220.81
2022-10-02T07:49:51.478Z,101226.03
2022-10-02T07:51:30.989Z,101237.41
2022-10-02T07:52:44.926Z,101237.41
2022-10-02T07:53:51.549Z,101233.63
2022-10-02T07:55:11.971Z,101236.88
2022-10-02T07:56:20.028Z,101240.25
2022-10-02T07:57:30.165Z,101237.31
2022-10-02T07:58:39.248Z,101241.69
2022-10-02T07:59:43.639Z,101237.03
2022-10-02T08:00:52.743Z,101246.59
2022-10-02T08:01:56.036Z,101248.31
2022-10-02T08:03:01.955Z,101258.00
2022-10-02T08:04:12.687Z,101246.31
2022-10-02T08:05:20.244Z,101258.69
2022-10-02T08:06:22.078Z,101249.56
2022-10-02T08:07:24.846Z,101256.44
2022-10-02T08:08:32.133Z,101262.38
2022-10-02T08:09:39.070Z,101254.34
2022-10-02T08:10:48.394Z,101252.53
2022-10-02T08:11:56.134Z,101253.38
2022-10-02T08:13:05.939Z,101257.03
2022-10-02T08:14:13.272Z,101257.03
2022-10-02T08:15:20.790Z,101261.53
2022-10-02T08:16:28.110Z,101256.19
2022-10-02T08:17:35.948Z,101263.22
2022-10-02T08:18:43.079Z,101260.41
2022-10-02T08:19:49.603Z,101262.81
2022-10-02T08:20:52.501Z,101261.84
2022-10-02T08:22:01.662Z,101263.41
2022-10-02T08:23:09.920Z,101257.91
2022-10-02T08:24:16.910Z,101268.59
2022-10-02T08:25:25.141Z,101268.59
2022-10-02T08:26:35.407Z,101267.63
2022-10-02T08:27:50.076Z,101262.28
2022-10-02T08:29:01.151Z,101266.66
2022-10-02T08:30:06.711Z,101265.66
2022-10-02T08:31:12.059Z,101266.38
2022-10-02T08:32:13.908Z,101261.72
2022-10-02T08:33:19.834Z,101262.44
2022-10-02T08:34:23.137Z,101265.53
2022-10-02T08:35:40.191Z,101257.94
2022-10-02T08:37:05.524Z,101255.16
2022-10-02T08:38:19.829Z,101263.00
2022-10-02T08:39:39.486Z,101268.91
2022-10-02T08:41:28.891Z,101262.72
2022-10-02T08:43:17.105Z,101264.41
2022-10-02T08:45:03.945Z,101266.69
2022-10-02T08:46:26.135Z,101270.34
2022-10-02T08:48:05.278Z,101272.31
2022-10-02T08:49:33.627Z,101276.66
2022-10-02T08:51:02.545Z,101286.66
2022-10-02T08:52:27.056Z,101283.28
2022-10-02T08:53:48.884Z,101283.28
2022-10-02T08:55:31.600Z,101283.41
2022-10-02T08:56:48.632Z,101285.22
2022-10-02T08:58:17.127Z,101279.88
2022-10-02T09:00:04.959Z,101286.47
2022-10-02T09:01:31.369Z,101286.63
2022-10-02T09:03:00.477Z,101293.81
2022-10-02T09:04:41.479Z,101294.78
2022-10-02T09:06:19.591Z,101297.31
2022-10-02T09:07:56.821Z,101293.09
2022-10-02T09:09:38.014Z,101286.63
2022-10-02T09:11:20.695Z,101303.25
2022-10-02T09:13:03.779Z,101295.91
2022-10-02T09:14:20.320Z,101300.41
2022-10-02T09:15:42.796Z,101297.63
2022-10-02T09:17:15.840Z,101300.00
2022-10-02T09:18:35.081Z,101297.91
2022-10-02T09:19:54.428Z,101289.72
2022-10-02T09:21:17.220Z,101297.22
2022-10-02T09:22:46.370Z,101293.41
2022-10-02T09:24:43.160Z,101296.50
2022-10-02T09:25:56.517Z,101286.38
2022-10-02T09:27:23.853Z,101295.81
2022-10-02T09:28:54.426Z,101296.22
2022-10-02T09:30:26.880Z,101310.03
2022-10-02T09:32:04.208Z,101302.41
2022-10-02T09:33:31.710Z,101297.06
2022-10-02T09:35:01.961Z,101304.81
2022-10-02T09:36:49.213Z,101305.66
2022-10-02T09:38:29.964Z,101312.53
2022-10-02T09:40:02.682Z,101303.53
2022-10-02T09:41:48.076Z,101306.09
2022-10-02T09:43:23.871Z,101300.47
2022-10-02T09:45:01.411Z,101304.38
2022-10-02T09:46:48.040Z,101303.69
2022-10-02T09:48:16.795Z,101309.16
2022-10-02T09:50:05.800Z,101304.06
2022-10-02T09:51:53.024Z,101303.78
2022-10-02T09:53:22.935Z,101301.88
2022-10-02T09:55:17.040Z,101310.28
2022-10-02T09:56:44.463Z,101315.34
2022-10-02T09:58:15.303Z,101307.47
2022-10-02T09:59:41.919Z,101307.47
2022-10-02T10:01:06.836Z,101311.00
2022-10-02T10:02:33.259Z,101308.34
2022-10-02T10:03:59.768Z,101313.41
2022-10-02T10:05:33.563Z,101311.41
2022-10-02T10:07:18.417Z,101328.31
2022-10-02T10:09:03.273Z,101324.09
2022-10-02T10:10:42.270Z,101327.19
2022-10-02T10:12:19.641Z,101321.97
2022-10-02T10:13:42.036Z,101324.53
2022-10-02T10:15:12.616Z,101321.84
2022-10-02T10:17:05.658Z,101323.38
2022-10-02T10:18:39.339Z,101329.16
2022-10-02T10:20:08.848Z,101331.25
2022-10-02T10:21:47.542Z,101331.53
2022-10-02T10:23:08.370Z,101338.84
2022-10-02T10:24:55.778Z,101333.59
2022-10-02T10:26:34.592Z,101332.56
2022-10-02T10:28:10.638Z,101329.16
2022-10-02T10:29:53.869Z,101332.78
2022-10-02T10:31:23.918Z,101337.41
2022-10-02T10:32:53.933Z,101328.31
2022-10-02T10:34:28.895Z,101330.13
2022-10-02T10:36:02.275Z,101339.44
2022-10-02T10:37:24.869Z,101330.25
2022-10-02T10:38:40.103Z,101337.13
2022-10-02T10:40:06.673Z,101340.53
2022-10-02T10:41:51.271Z,101339.81
2022-10-02T10:43:42.347Z,101340.13
2022-10-02T10:45:22.579Z,101346.03
2022-10-02T10:46:47.547Z,101347.31
2022-10-02T10:48:07.583Z,101346.66
2022-10-02T10:49:35.208Z,101355.66
2022-10-02T10:50:55.134Z,101352.59
2022-10-02T10:52:13.831Z,101347.38
2022-10-02T10:53:50.390Z,101355.72
2022-10-02T10:54:58.899Z,101356.25
2022-10-02T10:56:33.275Z,101361.50
2022-10-02T10:57:51.870Z,101353.44
2022-10-02T10:59:16.569Z,101365.84
2022-10-02T11:00:20.743Z,101370.09
2022-10-02T11:01:36.994Z,101356.50
2022-10-02T11:02:54.488Z,101360.72
2022-10-02T11:04:31.519Z,101363.09
2022-10-02T11:06:11.267Z,101364.50
2022-10-02T11:07:39.248Z,101370.31
2022-10-02T11:09:14.022Z,101362.66
2022-10-02T11:10:33.455Z,101368.56
2022-10-02T11:11:50.524Z,101367.41
2022-10-02T11:13:28.072Z,101373.19
2022-10-02T11:14:43.831Z,101366.81
2022-10-02T11:16:11.224Z,101367.81
2022-10-02T11:17:56.321Z,101361.75
2022-10-02T11:19:35.049Z,101372.16
2022-10-02T11:21:04.335Z,101370.88
2022-10-02T11:22:38.984Z,101365.22
2022-10-02T11:24:01.909Z,101365.63
2022-10-02T11:25:28.446Z,101365.00
2022-10-02T11:26:48.817Z,101374.28
2022-10-02T11:28:18.698Z,101368.06
2022-10-02T11:29:49.293Z,101374.47
2022-10-02T11:31:07.159Z,101373.44
2022-10-02T11:32:51.553Z,101380.81
2022-10-02T11:34:27.957Z,101383.78
2022-10-02T11:35:49.000Z,101383.09
2022-10-02T11:37:01.984Z,101385.94
2022-10-02T11:38:32.482Z,101387.09
2022-10-02T11:40:13.223Z,101387.94
2022-10-02T11:41:47.337Z,101380.41
2022-10-02T11:43:11.220Z,101381.66
2022-10-02T11:44:25.341Z,101390.25
2022-10-02T11:45:55.135Z,101390.94
2022-10-02T11:47:18.445Z,101386.94
2022-10-02T11:48:46.976Z,101377.44
2022-10-02T11:50:29.049Z,101381.34
2022-10-02T11:51:48.549Z,101394.19
2022-10-02T11:53:16.857Z,101390.16
2022-10-02T11:54:45.439Z,101385.50
2022-10-02T11:55:59.918Z,101381.81
2022-10-02T11:57:22.039Z,101388.72
2022-10-02T11:58:41.889Z,101385.75
2022-10-02T12:00:00.446Z,101396.47
2022-10-02T12:01:17.257Z,101390.94
2022-10-02T12:02:26.541Z,101391.78
2022-10-02T12:03:48.665Z,101396.00
2022-10-02T12:05:05.880Z,101404.75
2022-10-02T12:06:16.259Z,101393.19
2022-10-02T12:07:34.921Z,101403.06
2022-10-02T12:08:50.202Z,101397.69
2022-10-02T12:10:11.475Z,101385.25
2022-10-02T12:11:22.388Z,101390.63
2022-10-02T12:12:41.928Z,101389.63
2022-10-02T12:14:01.057Z,101398.22
2022-10-02T12:15:14.063Z,101391.75
2022-10-02T12:16:28.482Z,101394.28
2022-10-02T12:17:54.098Z,101394.81
2022-10-02T12:19:15.873Z,101391.13
2022-10-02T12:20:45.929Z,101389.13
2022-10-02T12:22:16.721Z,101385.75
2022-10-02T12:23:49.028Z,101393.13
2022-10-02T12:25:21.962Z,101388.16
2022-10-02T12:27:03.707Z,101383.13
2022-10-02T12:28:14.343Z,101383.97
2022-10-02T12:29:25.079Z,101383.53
2022-10-02T12:30:32.933Z,101383.06
2022-10-02T12:31:45.443Z,101385.13
2022-10-02T12:32:59.930Z,101375.75
2022-10-02T12:34:14.017Z,101377.13
2022-10-02T12:35:32.418Z,101375.13
2022-10-02T12:36:58.117Z,101385.56
2022-10-02T12:38:15.269Z,101381.88
2022-10-02T12:39:36.028Z,101378.22
2022-10-02T12:40:46.606Z,101386.94
2022-10-02T12:42:07.561Z,101382.41
2022-10-02T12:43:40.347Z,101379.72
2022-10-02T12:45:11.986Z,101388.63
2022-10-02T12:46:29.709Z,101391.31
2022-10-02T12:48:07.100Z,101383.59
2022-10-02T12:49:21.709Z,101384.56
2022-10-02T12:50:40.559Z,101390.94
2022-10-02T12:52:03.080Z,101390.25
2022-10-02T12:53:36.775Z,101387.88
2022-10-02T12:55:14.850Z,101389.03
2022-10-02T12:56:51.933Z,101392.03
2022-10-02T12:58:05.964Z,101390.22
2022-10-02T12:59:16.102Z,101390.88
2022-10-02T13:00:19.644Z,101393.56
2022-10-02T13:01:52.331Z,101387.34
2022-10-02T13:03:50.397Z,101381.13
2022-10-02T13:05:22.957Z,101384.66
2022-10-02T13:06:52.085Z,101388.03
2022-10-02T13:08:18.201Z,101387.03
2022-10-02T13:09:45.693Z,101386.72
2022-10-02T13:11:01.166Z,101381.22
2022-10-02T13:12:21.842Z,101383.91
2022-10-02T13:13:50.974Z,101385.88
2022-10-02T13:15:22.259Z,101385.19
2022-10-02T13:16:35.244Z,101377.28
2022-10-02T13:17:45.310Z,101379.16
2022-10-02T13:19:03.222Z,101384.53
2022-10-02T13:20:19.452Z,101390.44
2022-10-02T13:21:27.591Z,101389.59
2022-10-02T13:22:38.880Z,101392.28
2022-10-02T13:23:47.618Z,101382.38
2022-10-02T13:25:17.432Z,101382.50
2022-10-02T13:26:34.079Z,101379.16
2022-10-02T13:27:44.255Z,101383.50
2022-10-02T13:29:08.323Z,101376.47
2022-10-02T13:30:16.098Z,101389.91
2022-10-02T13:31:36.425Z,101384.53
2022-10-02T13:32:55.238Z,101379.81
2022-10-02T13:34:14.172Z,101383.19
2022-10-02T13:35:32.277Z,101385.72
2022-10-02T13:36:49.415Z,101390.78
2022-10-02T13:38:07.623Z,101393.16
2022-10-02T13:39:21.795Z,101393.69
2022-10-02T13:40:30.994Z,101395.41
2022-10-02T13:41:44.482Z,101393.56
2022-10-02T13:43:05.911Z,101390.69
2022-10-02T13:44:20.024Z,101393.56
2022-10-02T13:45:29.382Z,101391.69
2022-10-02T13:46:45.647Z,101399.06
2022-10-02T13:48:00.637Z,101394.84
2022-10-02T13:49:12.439Z,101398.84
2022-10-02T13:50:29.813Z,101398.31
2022-10-02T13:51:39.944Z,101395.09
2022-10-02T13:52:53.517Z,101408.84
2022-10-02T13:54:20.611Z,101402.94
2022-10-02T13:55:26.560Z,101408.78
2022-10-02T13:56:43.163Z,101402.88
2022-10-02T13:58:00.906Z,101409.53
2022-10-02T13:59:20.884Z,101415.19
2022-10-02T14:00:39.108Z,101408.44
2022-10-02T14:01:52.519Z,101411.44
2022-10-02T14:03:07.190Z,101417.09
2022-10-02T14:04:27.284Z,101408.34
2022-10-02T14:05:38.125Z,101414.88
2022-10-02T14:06:44.623Z,101414.88
2022-10-02T14:08:01.401Z,101417.53
2022-10-02T14:09:12.214Z,101420.09
2022-10-02T14:10:25.660Z,101418.41
2022-10-02T14:11:40.584Z,101420.09
2022-10-02T14:12:59.453Z,101422.91
2022-10-02T14:14:17.605Z,101427.28
2022-10-02T14:15:38.004Z,101428.16
2022-10-02T14:16:55.233Z,101420.09
2022-10-02T14:18:29.016Z,101428.28
2022-10-02T14:20:00.014Z,101428.44
2022-10-02T14:21:14.627Z,101423.09
2022-10-02T14:22:33.982Z,101430.81
2022-10-02T14:23:56.255Z,101425.47
2022-10-02T14:25:30.692Z,101425.28
2022-10-02T14:26:49.779Z,101433.03
2022-10-02T14:28:23.137Z,101430.22
2022-10-02T14:29:38.828Z,101433.44
2022-10-02T14:30:57.936Z,101435.66
2022-10-02T14:32:28.196Z,101432.72
2022-10-02T14:33:49.202Z,101437.06